Time;durP1;ratioP1;P1;durP2;ratioP2;P2;SDS_P1;SDS_P2;PMS_P1;PMS_P2;Temp;Humidity;BMP_temperature;BMP_pressure;BME280_temperature;BME280_humidity;BME280_pressure;Samples;Min_cycle;Max_cycle;Signal;HPM_P1;HPM_P2
2022/01/01 00:02:18;;;;;;;4.57;2.97;;;12.50;79.80;;;;;;20755327;28;19913;-81
2022/01/01 00:12:19;;;;;;;7.40;3.63;;;12.40;79.20;;;;;;20770634;28;20041;-81
2022/01/01 00:22:19;;;;;;;4.57;3.20;;;12.40;79.40;;;;;;20786823;28;20092;-82
2022/01/01 00:32:20;;;;;;;5.03;3.03;;;12.40;79.50;;;;;;20830188;28;20076;-81
2022/01/01 00:42:20;;;;;;;4.85;2.85;;;12.40;79.60;;;;;;20834702;28;20037;-83
2022/01/01 00:52:21;;;;;;;4.53;2.92;;;12.40;79.60;;;;;;20834237;28;20510;-81
2022/01/01 01:02:22;;;;;;;6.90;3.58;;;12.40;79.60;;;;;;20813820;28;20037;-81
2022/01/01 01:12:26;;;;;;;5.57;3.43;;;12.40;79.60;;;;;;20787816;28;20284;-83
2022/01/01 01:22:29;;;;;;;5.47;3.25;;;12.30;79.60;;;;;;20798714;28;20318;-82
2022/01/01 01:32:29;;;;;;;5.78;3.33;;;12.40;79.60;;;;;;20738248;28;20050;-81
2022/01/01 01:42:30;;;;;;;4.80;2.83;;;12.40;79.60;;;;;;20770282;28;20115;-81
2022/01/01 01:52:36;;;;;;;6.45;3.65;;;12.40;79.70;;;;;;20752047;28;20068;-83
2022/01/01 02:02:36;;;;;;;6.30;3.35;;;12.40;79.70;;;;;;20767743;28;20060;-81
2022/01/01 02:12:39;;;;;;;4.28;2.95;;;12.50;79.70;;;;;;20750262;28;20034;-82
2022/01/01 02:22:49;;;;;;;6.68;3.80;;;12.40;79.60;;;;;;20750821;28;20053;-83
2022/01/01 02:32:49;;;;;;;5.70;3.05;;;12.40;79.60;;;;;;20808594;28;20056;-82
2022/01/01 02:42:51;;;;;;;8.20;3.10;;;12.50;79.70;;;;;;20798141;28;20033;-83
2022/01/01 02:52:52;;;;;;;5.45;2.90;;;12.40;79.60;;;;;;20829100;28;20378;-83
2022/01/01 03:02:53;;;;;;;8.73;3.80;;;12.40;79.50;;;;;;20781384;28;20037;-81
2022/01/01 03:12:53;;;;;;;10.77;3.10;;;12.40;79.40;;;;;;20812373;28;20038;-82
2022/01/01 03:22:54;;;;;;;5.63;3.92;;;12.40;79.30;;;;;;20828417;28;20076;-81
2022/01/01 03:32:54;;;;;;;8.75;3.25;;;12.40;79.40;;;;;;20781906;28;20546;-83
2022/01/01 03:42:55;;;;;;;7.55;3.33;;;12.40;79.30;;;;;;20826881;28;20539;-83
2022/01/01 03:52:55;;;;;;;4.78;2.90;;;12.40;79.30;;;;;;20809592;28;20057;-83
2022/01/01 04:03:05;;;;;;;6.88;3.95;;;12.40;79.30;;;;;;20793242;28;20068;-83
2022/01/01 04:13:07;;;;;;;5.50;3.15;;;12.40;79.20;;;;;;20776769;28;20128;-82
2022/01/01 04:23:09;;;;;;;7.75;3.40;;;12.40;79.20;;;;;;20793210;28;20116;-84
2022/01/01 04:33:09;;;;;;;8.77;3.50;;;12.40;79.20;;;;;;20825950;28;20523;-82
2022/01/01 04:43:10;;;;;;;6.65;3.33;;;12.40;79.20;;;;;;20821301;28;20030;-80
2022/01/01 04:53:17;;;;;;;9.10;3.47;;;12.40;79.20;;;;;;20790550;28;20033;-81
2022/01/01 05:03:17;;;;;;;5.50;3.65;;;12.40;79.20;;;;;;20790471;28;20033;-83
2022/01/01 05:13:19;;;;;;;6.38;3.75;;;12.40;79.20;;;;;;20805798;28;20365;-82
2022/01/01 05:23:20;;;;;;;8.73;4.43;;;12.50;79.10;;;;;;20787762;28;20098;-83
2022/01/01 05:33:20;;;;;;;7.45;4.20;;;12.70;78.50;;;;;;20754886;28;20069;-82
2022/01/01 05:43:21;;;;;;;6.05;4.03;;;13.10;77.60;;;;;;20753261;28;20048;-83
2022/01/01 05:53:22;;;;;;;8.37;4.50;;;13.50;76.40;;;;;;20752266;28;20500;-81
2022/01/01 06:03:22;;;;;;;12.47;5.20;;;13.70;75.30;;;;;;20735332;28;20384;-79
2022/01/01 06:13:23;;;;;;;9.32;4.35;;;13.90;74.60;;;;;;20735095;28;20281;-82
2022/01/01 06:23:23;;;;;;;6.95;3.90;;;13.90;74.10;;;;;;20733604;28;20068;-82
2022/01/01 06:33:24;;;;;;;8.30;4.85;;;13.80;74.20;;;;;;20801929;28;20042;-82
2022/01/01 06:43:24;;;;;;;11.80;4.45;;;13.50;74.60;;;;;;20797358;28;20048;-82
2022/01/01 06:53:25;;;;;;;9.13;4.78;;;13.30;75.20;;;;;;20814462;28;20033;-82
2022/01/01 07:03:26;;;;;;;13.18;5.78;;;13.10;75.80;;;;;;20795358;28;20041;-80
2022/01/01 07:13:26;;;;;;;8.75;4.75;;;13.10;76.40;;;;;;20812215;28;20041;-82
2022/01/01 07:23:28;;;;;;;11.43;4.65;;;12.90;76.70;;;;;;20795148;28;20030;-84
2022/01/01 07:33:28;;;;;;;8.43;4.60;;;12.80;77.10;;;;;;20731223;28;20476;-84
2022/01/01 07:43:29;;;;;;;11.50;5.30;;;12.80;77.30;;;;;;20761938;28;20040;-81
2022/01/01 07:53:30;;;;;;;8.15;4.22;;;12.80;77.50;;;;;;20761951;28;20109;-84
2022/01/01 08:03:30;;;;;;;11.48;5.90;;;12.70;77.60;;;;;;20744453;28;20467;-83
2022/01/01 08:13:35;;;;;;;9.65;4.10;;;12.60;77.70;;;;;;20768282;28;20480;-84
2022/01/01 08:23:36;;;;;;;11.68;5.15;;;12.60;78.00;;;;;;20759082;28;20037;-80
2022/01/01 08:33:38;;;;;;;11.45;4.35;;;12.60;78.00;;;;;;20825950;28;20376;-82
2022/01/01 08:43:38;;;;;;;5.70;4.20;;;12.60;78.30;;;;;;20781532;28;20037;-82
2022/01/01 08:53:39;;;;;;;11.43;5.30;;;12.60;78.40;;;;;;20821501;28;20029;-82
2022/01/01 09:03:41;;;;;;;11.38;5.15;;;12.60;78.70;;;;;;20837248;28;20087;-82
2022/01/01 09:13:43;;;;;;;17.15;7.30;;;12.60;78.80;;;;;;20804359;28;20091;-82
2022/01/01 09:23:43;;;;;;;13.70;6.07;;;12.60;79.00;;;;;;20819309;28;20052;-82
2022/01/01 09:33:44;;;;;;;14.90;6.40;;;12.60;79.20;;;;;;20736871;28;20033;-78
2022/01/01 09:43:45;;;;;;;13.23;6.60;;;12.60;79.30;;;;;;20750865;28;20781;-80
2022/01/01 09:53:45;;;;;;;14.18;6.65;;;12.60;79.40;;;;;;20735636;28;20057;-84
2022/01/01 10:03:48;;;;;;;10.82;5.88;;;12.60;79.50;;;;;;20767801;28;20033;-80
2022/01/01 10:13:49;;;;;;;10.18;6.10;;;12.60;79.60;;;;;;20755321;28;20033;-78
2022/01/01 10:23:52;;;;;;;11.68;6.20;;;12.60;79.70;;;;;;20708671;28;20134;-80
2022/01/01 10:33:54;;;;;;;10.70;5.50;;;12.60;79.70;;;;;;20807373;28;20049;-79
2022/01/01 10:43:55;;;;;;;11.38;6.50;;;12.60;79.60;;;;;;20779492;28;20029;-79
2022/01/01 10:54:02;;;;;;;13.13;6.10;;;12.60;79.60;;;;;;20810831;28;20048;-79
2022/01/01 11:04:03;;;;;;;9.77;4.82;;;12.70;79.60;;;;;;20810894;28;20342;-77
2022/01/01 11:14:05;;;;;;;11.15;5.15;;;12.70;79.60;;;;;;20793657;28;20041;-77
2022/01/01 11:24:07;;;;;;;12.32;5.20;;;12.80;79.30;;;;;;20795123;28;20033;-77
2022/01/01 11:34:08;;;;;;;8.65;5.40;;;13.00;78.90;;;;;;21186359;22;20686;-79
2022/01/01 11:44:31;;;;;;;7.47;4.50;;;13.10;78.20;;;;;;20743840;28;20037;-80
2022/01/01 11:54:38;;;;;;;7.50;4.55;;;13.40;77.50;;;;;;20766996;28;20419;-73
2022/01/01 12:04:43;;;;;;;9.50;4.70;;;13.50;76.90;;;;;;20780620;28;20046;-71
2022/01/01 12:14:44;;;;;;;9.05;4.55;;;13.50;76.90;;;;;;20767364;28;20034;-74
2022/01/01 12:24:45;;;;;;;8.93;3.95;;;13.30;77.10;;;;;;20770186;28;20046;-77
2022/01/01 12:35:08;;;;;;;9.43;4.50;;;13.30;77.50;;;;;;20751545;28;20073;-75
2022/01/01 12:45:09;;;;;;;7.03;4.10;;;13.20;77.80;;;;;;20785243;28;20481;-76
2022/01/01 12:55:10;;;;;;;7.82;3.22;;;13.10;77.90;;;;;;20788620;28;20121;-74
2022/01/01 13:05:15;;;;;;;5.63;3.13;;;13.00;78.00;;;;;;20828623;28;20164;-74
2022/01/01 13:15:15;;;;;;;7.43;3.55;;;12.90;78.00;;;;;;20818318;28;20044;-73
2022/01/01 13:25:16;;;;;;;4.90;2.83;;;12.90;78.10;;;;;;20749470;28;20034;-74
2022/01/01 13:35:26;;;;;;;5.22;3.72;;;12.90;78.10;;;;;;20719101;28;20050;-75
2022/01/01 13:45:27;;;;;;;4.25;3.30;;;12.80;78.00;;;;;;20728291;28;20029;-73
2022/01/01 13:55:27;;;;;;;3.72;2.47;;;12.80;78.00;;;;;;20753952;28;20442;-75
2022/01/01 14:05:28;;;;;;;5.27;2.67;;;12.80;78.00;;;;;;20748738;28;20045;-73
2022/01/01 14:15:29;;;;;;;4.05;2.70;;;12.70;78.00;;;;;;20788617;28;20292;-73
2022/01/01 14:25:30;;;;;;;2.95;2.42;;;12.70;78.00;;;;;;20793380;28;20136;-76
2022/01/01 14:35:31;;;;;;;3.42;2.70;;;12.70;78.60;;;;;;20748478;28;20038;-75
2022/01/01 14:45:35;;;;;;;5.13;2.50;;;12.60;77.90;;;;;;20732154;28;20030;-75
2022/01/01 14:55:53;;;;;;;4.68;2.50;;;12.60;77.90;;;;;;20713324;28;20276;-76
2022/01/01 15:05:53;;;;;;;3.95;2.38;;;12.60;77.90;;;;;;20747894;28;20038;-76
2022/01/01 15:15:55;;;;;;;5.95;2.40;;;12.60;77.80;;;;;;20728695;28;20472;-75
2022/01/01 15:25:59;;;;;;;5.28;2.63;;;12.60;77.80;;;;;;20748963;28;20041;-75
2022/01/01 15:36:12;;;;;;;3.92;2.28;;;12.60;77.80;;;;;;20765656;28;20056;-75
2022/01/01 15:46:12;;;;;;;5.05;2.33;;;12.60;77.70;;;;;;20796333;28;20044;-76
2022/01/01 15:56:14;;;;;;;2.97;2.08;;;12.70;77.60;;;;;;20776319;28;20069;-76
2022/01/01 16:06:19;;;;;;;3.17;2.30;;;12.80;77.10;;;;;;20793434;28;20505;-75
2022/01/01 16:16:19;;;;;;;3.38;2.10;;;13.00;76.50;;;;;;20756652;28;20063;-76
2022/01/01 16:26:21;;;;;;;2.58;1.92;;;13.30;75.80;;;;;;20788269;28;20076;-75
2022/01/01 16:36:23;;;;;;;2.85;1.77;;;13.50;75.00;;;;;;20806186;28;20173;-73
2022/01/01 16:46:58;;;;;;;1.95;1.30;;;13.60;74.10;;;;;;20787886;28;20528;-75
2022/01/01 16:57:01;;;;;;;2.28;1.42;;;13.70;74.20;;;;;;20791718;28;20482;-75
2022/01/01 17:07:04;;;;;;;4.28;1.92;;;13.70;73.30;;;;;;20759737;28;20037;-75
2022/01/01 17:17:18;;;;;;;2.22;1.73;;;13.50;73.50;;;;;;20706483;28;20026;-77
2022/01/01 17:27:33;;;;;;;4.60;2.00;;;13.30;73.90;;;;;;20749561;28;20045;-82
2022/01/01 17:37:51;;;;;;;2.17;1.73;;;13.20;74.30;;;;;;20795116;28;20045;-77
2022/01/01 17:47:52;;;;;;;3.80;2.10;;;13.10;74.60;;;;;;20754261;28;20037;-82
2022/01/01 17:57:57;;;;;;;2.20;1.60;;;13.00;74.90;;;;;;20746127;28;20465;-81
2022/01/01 18:08:16;;;;;;;2.17;1.70;;;13.00;75.30;;;;;;20786843;28;20124;-82
2022/01/01 18:18:19;;;;;;;3.13;1.70;;;12.90;75.50;;;;;;20804596;28;20037;-81
2022/01/01 18:28:34;;;;;;;3.95;1.50;;;12.80;75.60;;;;;;20812026;28;20033;-80
2022/01/01 18:38:34;;;;;;;5.40;1.60;;;12.90;75.80;;;;;;20785112;28;20044;-80
2022/01/01 18:48:36;;;;;;;3.70;1.50;;;12.80;75.90;;;;;;20833875;28;20033;-85
2022/01/01 18:58:37;;;;;;;3.35;1.23;;;12.70;75.90;;;;;;20799588;28;20108;-84
2022/01/01 19:08:39;;;;;;;2.88;1.40;;;12.80;76.10;;;;;;20783125;28;20060;-84
2022/01/01 19:18:40;;;;;;;4.28;1.70;;;12.70;76.10;;;;;;20797423;28;20041;-74
2022/01/01 19:28:41;;;;;;;3.30;1.73;;;12.70;76.20;;;;;;20758229;28;20057;-78
2022/01/01 19:38:42;;;;;;;1.92;1.45;;;12.70;76.20;;;;;;20724817;28;20056;-79
2022/01/01 19:48:43;;;;;;;1.98;1.30;;;12.60;76.20;;;;;;20706206;28;20030;-79
2022/01/01 19:58:43;;;;;;;3.37;1.60;;;12.60;76.20;;;;;;20711635;28;20037;-79
2022/01/01 20:08:44;;;;;;;3.03;2.25;;;12.60;76.20;;;;;;20732453;28;20775;-79
2022/01/01 20:18:45;;;;;;;2.28;1.52;;;12.60;76.20;;;;;;20759649;28;20029;-77
2022/01/01 20:28:45;;;;;;;1.77;1.25;;;12.60;76.10;;;;;;20766435;28;20040;-77
2022/01/01 20:38:46;;;;;;;1.42;1.00;;;12.60;76.10;;;;;;20823952;28;20488;-77
2022/01/01 20:48:47;;;;;;;1.90;1.20;;;12.60;76.00;;;;;;20820286;28;20154;-76
2022/01/01 20:58:47;;;;;;;2.70;1.42;;;12.60;76.00;;;;;;20793478;28;20338;-76
2022/01/01 21:08:49;;;;;;;1.85;1.17;;;12.60;76.00;;;;;;20742315;28;20041;-76
2022/01/01 21:18:49;;;;;;;2.22;1.10;;;12.60;76.70;;;;;;20738755;28;20033;-76
2022/01/01 21:28:51;;;;;;;2.28;1.33;;;12.60;76.00;;;;;;20804285;28;20394;-76
2022/01/01 21:38:51;;;;;;;1.80;1.10;;;12.60;76.00;;;;;;20812665;28;20103;-76
2022/01/01 21:48:54;;;;;;;2.97;1.27;;;12.60;76.00;;;;;;20719182;28;20476;-75
2022/01/01 21:58:54;;;;;;;1.38;1.00;;;12.60;76.00;;;;;;20785749;28;20037;-76
2022/01/01 22:08:55;;;;;;;2.17;1.30;;;12.60;76.00;;;;;;20789964;28;20365;-76
2022/01/01 22:18:56;;;;;;;1.95;1.23;;;12.60;76.00;;;;;;20771830;28;20320;-76
2022/01/01 22:28:56;;;;;;;2.55;1.30;;;12.70;76.00;;;;;;20772641;28;20104;-76
2022/01/01 22:38:57;;;;;;;2.10;1.30;;;12.60;75.90;;;;;;20773375;28;20099;-76
2022/01/01 22:48:57;;;;;;;2.00;1.00;;;12.60;75.90;;;;;;20788742;28;20292;-76
2022/01/01 22:58:58;;;;;;;2.67;1.23;;;12.60;75.90;;;;;;20717657;28;20121;-76
2022/01/01 23:08:59;;;;;;;5.50;1.10;;;12.50;75.80;;;;;;20767691;28;20042;-77
2022/01/01 23:19:02;;;;;;;1.95;1.23;;;12.60;75.90;;;;;;20746581;28;20754;-76
2022/01/01 23:29:08;;;;;;;2.50;1.20;;;12.60;75.80;;;;;;20729839;28;20121;-77
2022/01/01 23:39:09;;;;;;;2.55;1.30;;;12.60;75.80;;;;;;20722504;28;20042;-77
2022/01/01 23:49:10;;;;;;;1.35;1.20;;;12.50;75.80;;;;;;20770316;28;20038;-76
2022/01/01 23:59:40;;;;;;;2.33;1.23;;;12.60;75.80;;;;;;20756220;28;20038;-77
